Eunice, LA

11:11 PM CDT on May 22, 2017 (GMT -0500)
Cross D Ranch | | Change Station
Active Advisory: Flash Flood Watch Active Notice: Flash Flood Watch

Elev 49 ft 30.44 °N, 92.33 °W | Updated 1 minute ago

Rain
Rain
72.2 °F
Feels Like 72.2 °F
N
0.0
Wind Variable Wind from SE
Gusts 0.0 mph

Today
High -- | Low -- °F
--% Chance of Precip.
Yesterday
High -- | Low -- °F
Precip. -- in
Pressure 29.84 in
Visibility 10.0 miles
Clouds Mostly Cloudy 1000 ft
Overcast 1700 ft
Dew Point 71 °F
Humidity 96%
Rainfall 1.13 in
Snow Depth Not available.
6:11 AM 8:01 PM
Waning Crescent, 10% visible
METAR KOPL 230355Z AUTO 14004KT 10SM BKN010 OVC017 21/21 A2984 RMK AO2 LTG DSNT SE P0011 T02110206 PWINO
Pressure 29.84 in
Visibility 10.0 miles
Clouds Mostly Cloudy 1000 ft
Overcast 1700 ft
Dew Point 71 °F
Humidity 96%
Rainfall 1.13 in
Snow Depth Not available.
6:11 AM 8:01 PM
Waning Crescent, 10% visible
METAR KOPL 230355Z AUTO 14004KT 10SM BKN010 OVC017 21/21 A2984 RMK AO2 LTG DSNT SE P0011 T02110206 PWINO

Get Your Daily Forecast Email!

Thanks for signing up!

Be on the lookout for a verification email in your inbox.

You'll start receiving severe weather alerts in your inbox..

×

10-Day Weather Forecast

Almanac

Astronomy

May. 22, 2017 Rise Set
Actual Time
Civil Twilight
Nautical Twilight
Astronomical Twilight
Moon
Length of Visible Light
Length of Day
Tomorrow will be .
, % of the Moon is Illuminated

Today's Extremes

State Highs State Lows

Community

WunderPhotos

Category 6

Welcome to Category 6. This is the collective home for Weather Underground's featured writeups by Dr. Jeff Masters (right), Bob Henson (left), Chris Burt, and other regular contributors.

Nearby

Air Quality

  Air Quality AQ Index Pollutant
Not available.

Snow Depth

Station Depth Elevation

Earthquake Activity

City Distance Mag. Time & Date
Minimum magnitude displayed is 2.5.

Coastal Water Temperatures

Place Temperature

Stations

Nearby Weather Stations

Station Location Temp. Windchill Dew Point Humidity Wind Precip. Elev Updated Type
                   

Watches & Warnings

Flash Flood Watch
Issued: 9:46 PM CDT May. 22, 2017 – National Weather Service

... Flash Flood Watch remains in effect until 1 am CDT Tuesday...

The Flash Flood Watch continues for

* portions of south central Louisiana including St. Landry Iberia,
Lafayette, lower St. Martin, St. Mary, upper St. Martin, and
Vermilion.

* Until 1 am CDT Tuesday

* 1 to 2 inches of additional rainfall, with isolated amounts of
3 inches or more possible.

* The flooding of roads, low lying areas, and areas with poor
drainage will be possible. If encountering flooded roadways,
remember to turn around, don't drown.

Precautionary/preparedness actions...

A Flash Flood Watch means that conditions may develop that lead
to flash flooding. Flash flooding is a very dangerous situation.

You should monitor later forecasts and be prepared to take action
should flash flood warnings be issued.